Slater, Missouri
Current Conditions -  °F | °C
As of 10:55 PM on Sunday 23 Nov 2014 (Local Time) from KMHL Reporting Station
Light Rain Light Rain  
Wind Chill: 34°   Ceiling: 2200
Heat Index: 43°   Visibility: 7mi
Dew Point: 41°   Wind: 23mph
Humidity: 93%   Direction: 310°NW
Pressure: 29.38"   Gusts: 38mph
Location:  39.22°N, 93.07°W
Report Text: KMHL 240455Z AUTO 31020G33KT 7SM -RA SCT014 OVC022 06/05 A2938 RMK AO2 P0002
Loading
Personal Weather Stations






























Interactive Weather Map New forecast layout! Learn more

10-Day Weather Forecast

Advertisements
Track Severe Weather on mobile